Terminal Aerodrome Forecast
Issued by NWS

Home | Current Version | Previous Version | Text Only | Print | Product List | Glossary On
Versions: 1 2 3 4 5 6 7 8 9 10 11 12 13
000
FTUS42 TJSJ 282320
TAFJMZ
TAF
TJMZ 282320Z 2900/2924 07006KT P6SM SCT025 BKN060
     FM291500 08012KT P6SM VCSH SCT025 BKN060
     FM292300 06005KT P6SM SCT015 SCT024 BKN040
      AMD NOT SKED=

USA.gov is the U.S. government's official web portal to all federal, state and local government web resources and services.